Time;durP1;ratioP1;P1;durP2;ratioP2;P2;SDS_P1;SDS_P2;PMS_P1;PMS_P2;Temp;Humidity;BMP_temperature;BMP_pressure;BME280_temperature;BME280_humidity;BME280_pressure;Samples;Min_cycle;Max_cycle;Signal;HPM_P1;HPM_P2
2023/04/06 00:01:28;;;;;;;9.10;4.90;;;5.70;99.90;;;;;;4970098;28;20296;-77
2023/04/06 00:03:53;;;;;;;6.03;4.10;;;5.80;99.90;;;;;;4967569;28;20190;-77
2023/04/06 00:06:20;;;;;;;5.77;3.93;;;5.60;99.90;;;;;;4963561;28;20211;-77
2023/04/06 00:08:45;;;;;;;5.50;4.00;;;5.60;99.90;;;;;;4966023;28;20206;-77
2023/04/06 00:11:11;;;;;;;5.77;4.23;;;5.50;99.90;;;;;;4965755;28;20218;-74
2023/04/06 00:13:37;;;;;;;8.53;4.43;;;5.50;99.90;;;;;;4964378;28;20256;-76
2023/04/06 00:16:05;;;;;;;4.93;3.53;;;5.40;99.90;;;;;;4962674;28;20269;-77
2023/04/06 00:18:30;;;;;;;8.53;4.87;;;5.50;99.90;;;;;;4962443;28;20776;-77
2023/04/06 00:20:56;;;;;;;6.07;4.07;;;5.50;99.90;;;;;;4967212;28;20293;-76
2023/04/06 00:23:22;;;;;;;5.83;3.70;;;5.50;99.90;;;;;;4970366;28;20206;-76
2023/04/06 00:25:47;;;;;;;6.67;4.20;;;5.50;99.90;;;;;;4970114;28;20210;-75
2023/04/06 00:28:13;;;;;;;6.00;4.10;;;5.40;99.90;;;;;;4993669;23;20232;-75
2023/04/06 00:30:40;;;;;;;6.33;3.87;;;5.40;99.90;;;;;;4988541;28;20519;-76
2023/04/06 00:33:05;;;;;;;5.97;4.30;;;5.40;99.90;;;;;;4983943;28;20317;-77
2023/04/06 00:35:31;;;;;;;7.13;4.23;;;5.40;99.90;;;;;;4983483;28;20312;-76
2023/04/06 00:37:57;;;;;;;6.63;4.37;;;5.50;99.90;;;;;;4980034;28;20591;-75
2023/04/06 00:40:22;;;;;;;8.37;4.50;;;5.60;99.90;;;;;;4987819;28;20206;-73
2023/04/06 00:42:48;;;;;;;6.47;4.33;;;5.50;99.90;;;;;;4984814;28;20174;-74
2023/04/06 00:45:14;;;;;;;7.43;4.20;;;5.60;99.90;;;;;;4982777;28;20296;-75
2023/04/06 00:47:40;;;;;;;6.10;3.87;;;5.50;99.90;;;;;;4984391;28;20252;-76
2023/04/06 00:50:06;;;;;;;4.87;3.60;;;5.60;99.90;;;;;;4984755;28;20209;-75
2023/04/06 00:52:33;;;;;;;5.80;4.07;;;5.50;99.90;;;;;;4982539;28;20249;-75
2023/04/06 00:54:59;;;;;;;6.47;4.20;;;5.40;99.90;;;;;;4987341;28;20180;-75
2023/04/06 00:57:25;;;;;;;6.50;4.00;;;5.50;99.90;;;;;;4988968;28;20206;-75
2023/04/06 00:59:52;;;;;;;6.30;3.70;;;5.40;99.90;;;;;;4984745;28;20252;-75
2023/04/06 01:02:18;;;;;;;6.63;4.50;;;5.30;99.90;;;;;;4988638;28;20206;-73
2023/04/06 01:04:44;;;;;;;7.97;3.97;;;5.40;99.90;;;;;;4989184;28;20217;-74
2023/04/06 01:07:10;;;;;;;5.93;3.60;;;5.30;99.90;;;;;;4990130;28;20186;-76
2023/04/06 01:09:36;;;;;;;8.17;4.00;;;5.30;99.90;;;;;;4991439;28;20242;-76
2023/04/06 01:12:02;;;;;;;10.43;4.10;;;5.20;99.90;;;;;;4992932;28;20637;-74
2023/04/06 01:14:27;;;;;;;7.27;4.67;;;5.20;99.90;;;;;;4988828;28;20237;-75
2023/04/06 01:16:54;;;;;;;6.33;3.50;;;5.20;99.90;;;;;;4992107;28;20869;-75
2023/04/06 01:19:21;;;;;;;6.20;4.33;;;5.20;99.90;;;;;;4989336;28;20209;-74
2023/04/06 01:21:49;;;;;;;5.80;4.20;;;5.20;99.90;;;;;;4992900;28;20217;-75
2023/04/06 01:24:14;;;;;;;7.23;3.97;;;5.10;99.90;;;;;;4989054;28;20692;-75
2023/04/06 01:26:40;;;;;;;5.67;3.57;;;5.10;99.90;;;;;;4992215;28;20338;-75
2023/04/06 01:29:06;;;;;;;7.73;4.00;;;5.10;99.90;;;;;;4987213;28;20296;-73
2023/04/06 01:31:31;;;;;;;6.97;3.90;;;5.20;99.90;;;;;;4986509;28;20174;-75
2023/04/06 01:33:57;;;;;;;8.53;3.90;;;5.20;99.90;;;;;;4985984;28;20647;-75
2023/04/06 01:36:23;;;;;;;9.03;3.83;;;5.10;99.90;;;;;;4985764;28;20205;-73
2023/04/06 01:38:48;;;;;;;8.43;5.37;;;5.10;99.90;;;;;;4988428;28;20217;-74
2023/04/06 01:41:14;;;;;;;7.20;3.80;;;5.00;99.90;;;;;;4992745;28;20217;-74
2023/04/06 01:43:40;;;;;;;10.83;4.10;;;4.90;99.90;;;;;;4991863;28;20209;-74
2023/04/06 01:46:06;;;;;;;6.33;3.93;;;4.90;99.90;;;;;;4992739;28;20184;-75
2023/04/06 01:48:31;;;;;;;6.37;4.07;;;4.80;99.90;;;;;;4989551;28;20700;-75
2023/04/06 01:50:57;;;;;;;5.63;3.90;;;4.80;99.90;;;;;;4987833;28;20665;-74
2023/04/06 01:53:23;;;;;;;8.70;4.23;;;4.80;99.90;;;;;;4988219;28;20233;-73
2023/04/06 01:55:48;;;;;;;5.70;3.97;;;4.80;99.90;;;;;;4991681;28;20577;-75
2023/04/06 01:58:14;;;;;;;8.07;4.03;;;4.90;99.90;;;;;;4987161;28;20209;-75
2023/04/06 02:00:40;;;;;;;5.97;3.67;;;4.90;99.90;;;;;;4987693;28;20182;-74
2023/04/06 02:03:06;;;;;;;6.23;4.03;;;4.90;99.90;;;;;;4988006;28;20234;-73
2023/04/06 02:05:37;;;;;;;6.60;4.53;;;4.90;99.90;;;;;;4985454;28;20216;-75
2023/04/06 02:08:05;;;;;;;7.80;4.00;;;4.90;99.90;;;;;;4989097;28;20221;-74
2023/04/06 02:10:31;;;;;;;5.63;3.97;;;4.90;99.90;;;;;;4983969;28;20213;-77
2023/04/06 02:12:56;;;;;;;6.47;3.67;;;4.90;99.90;;;;;;4985663;28;20261;-76
2023/04/06 02:15:22;;;;;;;8.80;4.23;;;4.80;99.90;;;;;;4981703;28;20249;-73
2023/04/06 02:17:48;;;;;;;7.53;4.10;;;4.80;99.90;;;;;;4991731;28;20548;-75
2023/04/06 02:20:14;;;;;;;6.93;4.17;;;4.70;99.90;;;;;;4990152;28;20220;-75
2023/04/06 02:22:40;;;;;;;6.80;4.00;;;4.80;99.90;;;;;;4990772;28;20209;-74
2023/04/06 02:25:06;;;;;;;7.20;4.50;;;4.70;99.90;;;;;;4984109;28;20283;-75
2023/04/06 02:27:32;;;;;;;6.37;3.87;;;4.70;99.90;;;;;;4989092;28;20252;-75
2023/04/06 02:29:57;;;;;;;8.47;4.40;;;4.70;99.90;;;;;;4986866;28;20244;-75
2023/04/06 02:32:23;;;;;;;7.20;4.47;;;4.60;99.90;;;;;;4985889;28;20221;-74
2023/04/06 02:34:49;;;;;;;8.57;4.40;;;4.60;99.90;;;;;;4988799;28;20567;-75
2023/04/06 02:37:15;;;;;;;5.97;4.10;;;4.50;99.90;;;;;;4983501;28;20264;-75
2023/04/06 02:39:41;;;;;;;5.40;3.77;;;4.40;99.90;;;;;;4984382;28;20210;-75
2023/04/06 02:42:08;;;;;;;5.80;3.97;;;4.30;99.90;;;;;;4983691;28;20268;-75
2023/04/06 02:44:34;;;;;;;7.40;3.80;;;4.40;99.90;;;;;;4983012;28;20217;-75
2023/04/06 02:47:00;;;;;;;8.23;4.43;;;4.30;99.90;;;;;;4987866;28;20268;-75
2023/04/06 02:49:26;;;;;;;5.97;3.70;;;4.40;99.90;;;;;;4984926;28;20201;-73
2023/04/06 02:51:51;;;;;;;7.73;4.20;;;4.40;99.90;;;;;;4984845;28;20209;-75
2023/04/06 02:54:17;;;;;;;8.10;4.70;;;4.30;99.90;;;;;;4983816;28;20238;-75
2023/04/06 02:56:43;;;;;;;7.83;4.57;;;4.20;99.90;;;;;;4987337;28;20307;-75
2023/04/06 02:59:09;;;;;;;7.90;4.50;;;4.20;99.90;;;;;;4988231;28;20228;-75
2023/04/06 03:01:35;;;;;;;7.53;4.87;;;4.20;99.90;;;;;;4987039;28;20216;-75
2023/04/06 03:04:02;;;;;;;7.63;4.10;;;4.20;99.90;;;;;;4980196;28;20190;-74
2023/04/06 03:06:27;;;;;;;9.67;4.50;;;4.20;99.90;;;;;;4988068;28;20224;-74
2023/04/06 03:08:53;;;;;;;7.90;3.93;;;4.10;99.90;;;;;;4987391;28;20597;-76
2023/04/06 03:11:19;;;;;;;6.20;4.40;;;4.10;99.90;;;;;;4986491;28;20215;-75
2023/04/06 03:13:45;;;;;;;6.67;4.23;;;4.00;99.90;;;;;;4982768;28;20304;-75
2023/04/06 03:16:10;;;;;;;7.70;5.20;;;4.00;99.90;;;;;;4987067;28;20204;-75
2023/04/06 03:18:36;;;;;;;7.77;4.17;;;4.00;99.90;;;;;;4983020;28;20571;-75
2023/04/06 03:21:02;;;;;;;6.90;4.40;;;4.00;99.90;;;;;;4985004;28;20226;-75
2023/04/06 03:23:28;;;;;;;7.23;4.47;;;4.00;99.90;;;;;;4986296;28;20676;-73
2023/04/06 03:25:53;;;;;;;7.63;4.20;;;4.00;99.90;;;;;;4984354;28;20209;-75
2023/04/06 03:28:19;;;;;;;9.23;4.03;;;4.00;99.90;;;;;;4985174;28;20228;-75
2023/04/06 03:30:45;;;;;;;10.23;4.40;;;4.00;99.90;;;;;;4984097;28;20656;-75
2023/04/06 03:33:11;;;;;;;5.97;3.70;;;4.00;99.90;;;;;;4983248;28;20242;-75
2023/04/06 03:35:37;;;;;;;7.97;4.40;;;4.00;99.90;;;;;;4984940;28;20241;-75
2023/04/06 03:38:03;;;;;;;7.50;4.93;;;3.90;99.90;;;;;;4988675;28;20219;-74
2023/04/06 03:40:30;;;;;;;7.63;4.07;;;4.00;99.90;;;;;;4988471;28;20218;-74
2023/04/06 03:42:56;;;;;;;5.33;3.70;;;4.00;99.90;;;;;;4985397;28;20175;-75
2023/04/06 03:45:22;;;;;;;7.67;4.53;;;4.00;99.90;;;;;;4986705;28;20287;-75
2023/04/06 03:47:47;;;;;;;8.27;4.27;;;4.00;99.90;;;;;;4982272;28;20630;-75
2023/04/06 03:50:13;;;;;;;7.50;4.30;;;4.00;99.90;;;;;;4985758;28;20208;-76
2023/04/06 03:52:39;;;;;;;6.83;4.07;;;4.00;99.90;;;;;;4988122;28;20209;-75
2023/04/06 03:55:05;;;;;;;6.80;4.30;;;3.90;99.90;;;;;;4985170;28;20173;-74
2023/04/06 03:57:31;;;;;;;7.67;4.47;;;3.90;99.90;;;;;;4981754;28;20206;-75
2023/04/06 03:59:56;;;;;;;7.72;5.18;;;3.80;99.90;;;;;;4985954;28;20571;-74
2023/04/06 04:02:22;;;;;;;6.33;4.80;;;3.60;99.90;;;;;;4982661;28;20200;-74
2023/04/06 04:04:48;;;;;;;10.60;5.20;;;3.70;99.90;;;;;;4983032;28;20706;-75
2023/04/06 04:07:14;;;;;;;12.07;5.20;;;3.70;99.90;;;;;;4983191;28;20543;-74
2023/04/06 04:09:40;;;;;;;7.33;4.27;;;3.60;99.90;;;;;;4983285;28;20191;-74
2023/04/06 04:12:05;;;;;;;6.53;4.60;;;3.70;99.90;;;;;;4985478;28;20670;-74
2023/04/06 04:14:31;;;;;;;6.00;4.80;;;3.60;99.90;;;;;;4988301;28;20604;-74
2023/04/06 04:16:57;;;;;;;9.10;5.30;;;3.60;99.90;;;;;;4986058;28;20206;-74
2023/04/06 04:19:22;;;;;;;9.10;5.03;;;3.60;99.90;;;;;;4986378;28;20249;-75
2023/04/06 04:21:48;;;;;;;8.90;5.63;;;3.60;99.90;;;;;;4985856;28;20185;-75
2023/04/06 04:24:14;;;;;;;8.10;4.57;;;3.60;99.90;;;;;;4985464;28;20231;-73
2023/04/06 04:26:40;;;;;;;5.03;4.40;;;3.50;99.90;;;;;;4981517;28;20205;-75
2023/04/06 04:29:06;;;;;;;10.70;5.20;;;3.60;99.90;;;;;;4984217;28;20699;-74
2023/04/06 04:31:32;;;;;;;8.97;5.30;;;3.60;99.90;;;;;;4984438;28;20217;-74
2023/04/06 04:34:00;;;;;;;6.10;4.80;;;3.60;99.90;;;;;;4984850;28;20258;-74
2023/04/06 04:36:26;;;;;;;6.97;5.13;;;3.60;99.90;;;;;;4982700;28;20692;-75
2023/04/06 04:38:54;;;;;;;8.70;4.93;;;3.70;99.90;;;;;;4984453;28;20210;-74
2023/04/06 04:41:20;;;;;;;9.13;5.20;;;3.60;99.90;;;;;;4981687;28;20237;-74
2023/04/06 04:43:46;;;;;;;10.10;5.90;;;3.70;99.90;;;;;;4983872;28;20683;-75
2023/04/06 04:46:11;;;;;;;9.30;5.07;;;3.60;99.90;;;;;;4986955;28;20223;-74
2023/04/06 04:48:37;;;;;;;6.47;5.27;;;3.60;99.90;;;;;;4984026;28;20295;-74
2023/04/06 04:51:04;;;;;;;8.87;5.77;;;3.60;99.90;;;;;;4985504;28;20202;-75
2023/04/06 04:53:30;;;;;;;7.57;5.60;;;3.60;99.90;;;;;;4982660;28;20283;-73
2023/04/06 04:55:55;;;;;;;10.90;6.13;;;3.70;99.90;;;;;;4982553;28;20288;-75
2023/04/06 04:58:21;;;;;;;6.83;5.60;;;3.70;99.90;;;;;;4989518;28;20207;-75
2023/04/06 05:00:47;;;;;;;8.07;6.13;;;3.80;99.90;;;;;;4989606;28;20192;-75
2023/04/06 05:03:24;;;;;;;10.73;5.80;;;4.40;99.90;;;;;;4986504;28;20203;-75
2023/04/06 05:05:50;;;;;;;12.30;5.53;;;5.20;99.90;;;;;;4982193;28;20212;-75
2023/04/06 05:08:16;;;;;;;13.70;6.23;;;5.80;99.90;;;;;;4983894;28;20210;-76
2023/04/06 05:10:42;;;;;;;9.90;5.67;;;6.40;99.90;;;;;;4983178;28;20237;-75
2023/04/06 05:13:08;;;;;;;8.17;5.70;;;6.40;99.90;;;;;;4991591;28;20269;-75
2023/04/06 05:15:40;;;;;;;10.00;5.73;;;6.50;99.90;;;;;;4986037;28;20288;-74
2023/04/06 05:18:07;;;;;;;8.30;5.60;;;6.20;99.90;;;;;;4986363;28;20297;-75
2023/04/06 05:20:33;;;;;;;8.53;6.40;;;5.90;99.90;;;;;;5000519;28;20731;-76
2023/04/06 05:22:59;;;;;;;7.80;5.93;;;6.20;99.90;;;;;;4991235;28;20256;-77
2023/04/06 05:25:25;;;;;;;12.83;5.83;;;6.90;99.90;;;;;;4991906;28;20177;-75
2023/04/06 05:27:50;;;;;;;11.80;6.10;;;7.60;99.90;;;;;;4992873;28;20174;-76
2023/04/06 05:30:16;;;;;;;8.33;5.80;;;8.00;99.90;;;;;;4983861;28;20309;-75
2023/04/06 05:32:44;;;;;;;9.43;6.27;;;8.50;99.90;;;;;;4982385;28;20293;-75
2023/04/06 05:35:10;;;;;;;10.37;5.70;;;9.10;99.90;;;;;;4987196;28;20574;-75
2023/04/06 05:37:35;;;;;;;8.90;6.07;;;9.20;99.90;;;;;;4982938;28;20209;-75
2023/04/06 05:40:01;;;;;;;7.90;6.35;;;9.60;99.90;;;;;;4983386;28;20554;-75
2023/04/06 05:42:27;;;;;;;13.13;6.07;;;10.20;99.90;;;;;;4984891;28;20202;-76
2023/04/06 05:44:53;;;;;;;10.05;5.47;;;10.50;99.90;;;;;;4989153;28;20206;-76
2023/04/06 05:47:19;;;;;;;7.07;5.13;;;11.10;99.90;;;;;;4991838;28;20289;-76
2023/04/06 05:49:45;;;;;;;8.10;5.80;;;10.80;99.90;;;;;;4988333;28;20202;-76
2023/04/06 05:52:10;;;;;;;11.38;5.93;;;11.10;99.90;;;;;;4987957;28;20659;-76
2023/04/06 05:54:37;;;;;;;10.32;6.80;;;11.70;99.90;;;;;;4989122;28;20312;-76
2023/04/06 05:57:03;;;;;;;8.68;6.07;;;11.50;99.90;;;;;;4984620;28;20699;-76
2023/04/06 05:59:32;;;;;;;10.23;7.28;;;11.80;99.90;;;;;;4981773;28;20233;-76
2023/04/06 06:01:58;;;;;;;9.50;6.40;;;11.80;99.90;;;;;;4985130;28;20216;-76
2023/04/06 06:04:23;;;;;;;13.50;6.95;;;12.60;99.90;;;;;;4982888;28;20178;-76
2023/04/06 06:06:49;;;;;;;9.48;6.63;;;12.50;99.90;;;;;;4982027;28;20555;-76
2023/04/06 06:09:15;;;;;;;9.10;5.88;;;13.20;99.90;;;;;;4991181;28;20288;-76
2023/04/06 06:11:41;;;;;;;9.20;6.13;;;12.80;99.90;;;;;;4983767;28;20206;-75
2023/04/06 06:14:07;;;;;;;8.70;6.28;;;12.90;99.90;;;;;;4986503;28;20205;-75
2023/04/06 06:16:33;;;;;;;7.78;6.35;;;12.60;99.90;;;;;;4984949;28;20289;-76
2023/04/06 06:18:59;;;;;;;11.68;6.75;;;12.70;99.90;;;;;;4991700;28;20248;-76
2023/04/06 06:21:25;;;;;;;9.55;6.13;;;13.60;99.90;;;;;;4987255;28;20204;-75
2023/04/06 06:23:51;;;;;;;10.77;6.60;;;14.30;99.90;;;;;;4985383;28;20206;-76
2023/04/06 06:26:17;;;;;;;9.02;6.43;;;14.30;99.90;;;;;;4988585;28;20204;-76
2023/04/06 06:28:42;;;;;;;10.02;6.82;;;13.80;99.90;;;;;;4983320;28;20696;-76
2023/04/06 06:31:08;;;;;;;13.55;7.30;;;14.30;99.90;;;;;;5012829;23;20712;-77
2023/04/06 06:33:34;;;;;;;11.45;6.50;;;14.30;99.90;;;;;;4984737;28;20634;-78
2023/04/06 06:36:00;;;;;;;10.52;7.00;;;15.00;99.90;;;;;;4990889;28;20206;-77
2023/04/06 06:38:26;;;;;;;11.73;7.70;;;15.30;99.90;;;;;;4985897;28;20440;-78
2023/04/06 06:40:52;;;;;;;9.32;6.72;;;14.90;99.90;;;;;;4985498;28;20758;-77
2023/04/06 06:43:18;;;;;;;8.95;6.32;;;14.00;99.90;;;;;;4989359;28;20176;-78
2023/04/06 06:45:44;;;;;;;14.57;6.68;;;14.00;99.90;;;;;;4984165;28;20175;-77
2023/04/06 06:48:10;;;;;;;9.07;6.65;;;13.90;99.90;;;;;;4991884;28;20204;-77
2023/04/06 06:50:36;;;;;;;10.60;6.20;;;14.30;99.90;;;;;;4988321;28;20604;-78
2023/04/06 06:53:02;;;;;;;8.63;6.65;;;14.30;99.90;;;;;;4987617;28;20217;-75
2023/04/06 06:55:28;;;;;;;9.55;6.63;;;15.00;99.90;;;;;;4990146;28;20165;-78
2023/04/06 06:57:53;;;;;;;9.68;6.60;;;14.70;99.90;;;;;;4988981;28;20239;-78
2023/04/06 07:00:22;;;;;;;8.00;6.03;;;16.20;99.90;;;;;;4989275;28;20616;-78
2023/04/06 07:02:48;;;;;;;9.13;6.05;;;15.20;99.90;;;;;;4990456;28;20212;-78
2023/04/06 07:05:15;;;;;;;9.07;6.07;;;15.80;99.90;;;;;;4988130;28;20202;-78
2023/04/06 07:07:41;;;;;;;10.13;5.85;;;15.80;99.90;;;;;;4984869;28;20213;-77
2023/04/06 07:10:07;;;;;;;7.85;5.75;;;15.50;99.50;;;;;;4987718;28;20193;-78
2023/04/06 07:12:33;;;;;;;6.85;5.13;;;16.50;99.10;;;;;;4989593;28;20203;-78
2023/04/06 07:14:59;;;;;;;6.18;5.07;;;17.60;97.20;;;;;;4985758;28;20197;-78
2023/04/06 07:17:25;;;;;;;7.20;5.35;;;17.40;95.60;;;;;;4983675;28;20205;-78
2023/04/06 07:19:50;;;;;;;6.20;5.03;;;17.20;95.80;;;;;;4981411;28;20314;-78
2023/04/06 07:22:16;;;;;;;8.35;5.15;;;17.80;95.40;;;;;;4983391;28;20181;-78
2023/04/06 07:24:42;;;;;;;10.75;5.45;;;17.00;95.20;;;;;;4984946;28;20174;-77
2023/04/06 07:27:08;;;;;;;7.63;4.90;;;17.00;94.60;;;;;;4990200;28;20285;-77
2023/04/06 07:29:34;;;;;;;7.85;4.65;;;18.50;93.50;;;;;;4990978;28;20194;-77
2023/04/06 07:31:59;;;;;;;8.98;5.47;;;18.90;92.70;;;;;;5004149;28;20228;-78
2023/04/06 07:34:25;;;;;;;6.35;5.10;;;18.20;93.30;;;;;;4990219;28;20533;-78
2023/04/06 07:36:53;;;;;;;7.88;4.93;;;17.70;92.20;;;;;;4987464;28;20175;-77
2023/04/06 07:39:19;;;;;;;5.70;4.43;;;18.60;93.10;;;;;;4987667;28;20304;-77
2023/04/06 07:41:45;;;;;;;9.00;5.10;;;18.80;92.10;;;;;;4985851;28;20692;-77
2023/04/06 07:44:10;;;;;;;6.63;4.43;;;19.10;91.20;;;;;;4987072;28;20201;-77
2023/04/06 07:46:36;;;;;;;7.65;4.30;;;19.40;88.60;;;;;;4988454;28;20229;-78
2023/04/06 07:49:02;;;;;;;7.00;4.18;;;20.10;90.00;;;;;;4986557;28;20213;-76
2023/04/06 07:51:28;;;;;;;7.50;4.80;;;20.70;88.00;;;;;;4986939;28;20209;-77
2023/04/06 07:53:53;;;;;;;7.20;4.20;;;20.70;84.70;;;;;;4983351;28;20216;-77
2023/04/06 07:56:20;;;;;;;7.05;4.28;;;21.40;83.20;;;;;;4983888;28;20209;-77
2023/04/06 07:58:46;;;;;;;5.65;3.72;;;20.50;82.40;;;;;;4987077;28;20214;-77
2023/04/06 08:01:12;;;;;;;5.05;3.95;;;20.50;83.00;;;;;;4982978;28;20197;-77
2023/04/06 08:03:39;;;;;;;10.40;4.13;;;20.30;83.20;;;;;;4987917;28;20227;-77
2023/04/06 08:06:05;;;;;;;7.05;4.03;;;19.00;81.40;;;;;;4992030;28;20587;-76
2023/04/06 08:08:31;;;;;;;5.03;3.45;;;16.00;84.10;;;;;;4989930;28;20232;-78
2023/04/06 08:10:57;;;;;;;5.45;3.95;;;14.30;89.00;;;;;;4988023;28;20717;-76
2023/04/06 08:13:23;;;;;;;10.15;3.97;;;14.00;91.10;;;;;;4986643;28;20484;-77
2023/04/06 08:15:48;;;;;;;5.00;3.63;;;13.30;92.20;;;;;;4982751;28;20170;-76
2023/04/06 08:18:14;;;;;;;5.22;3.20;;;13.10;92.70;;;;;;4988970;28;20316;-77
2023/04/06 08:20:40;;;;;;;4.03;2.95;;;13.50;93.40;;;;;;4992084;28;20205;-76
2023/04/06 08:23:09;;;;;;;5.18;3.38;;;13.40;93.10;;;;;;4979733;28;20208;-78
2023/04/06 08:25:35;;;;;;;4.40;3.08;;;13.00;93.60;;;;;;4986700;28;20201;-76
2023/04/06 08:28:02;;;;;;;3.70;3.10;;;13.50;93.00;;;;;;4993155;28;20182;-76
2023/04/06 08:30:28;;;;;;;6.18;3.25;;;13.30;93.20;;;;;;4990994;28;20217;-76
2023/04/06 08:32:54;;;;;;;5.15;3.17;;;12.60;93.60;;;;;;4988442;28;20579;-76
2023/04/06 08:35:20;;;;;;;4.93;2.78;;;12.90;93.60;;;;;;4990509;28;20208;-76
2023/04/06 08:37:46;;;;;;;5.55;3.13;;;12.80;94.10;;;;;;4994098;28;20548;-78
2023/04/06 08:40:12;;;;;;;4.88;2.58;;;13.10;94.30;;;;;;4990872;28;20234;-77
2023/04/06 08:42:47;;;;;;;5.57;2.63;;;13.00;94.00;;;;;;4990914;28;20209;-78
2023/04/06 08:45:15;;;;;;;5.85;3.10;;;12.40;93.30;;;;;;4989982;28;20257;-77
2023/04/06 08:47:42;;;;;;;4.45;2.40;;;12.00;94.50;;;;;;4987712;28;20214;-77
2023/04/06 08:50:11;;;;;;;4.15;2.40;;;12.00;94.40;;;;;;4992303;28;20212;-78
2023/04/06 08:52:37;;;;;;;3.92;2.78;;;11.70;93.90;;;;;;4990269;28;20210;-78
2023/04/06 08:55:04;;;;;;;6.40;2.67;;;12.20;93.60;;;;;;4993150;28;20177;-77
2023/04/06 08:57:31;;;;;;;2.88;2.03;;;12.30;93.80;;;;;;4981896;28;20229;-78
2023/04/06 08:59:59;;;;;;;5.13;2.28;;;12.20;93.60;;;;;;4990741;28;20224;-76
2023/04/06 09:02:27;;;;;;;4.40;2.22;;;12.40;93.00;;;;;;4990868;28;20271;-76
2023/04/06 09:04:54;;;;;;;3.33;2.58;;;11.70;92.90;;;;;;4987009;28;20206;-77
2023/04/06 09:07:20;;;;;;;4.35;2.08;;;11.80;93.30;;;;;;4989303;28;20201;-77
2023/04/06 09:09:49;;;;;;;3.83;2.30;;;11.40;92.90;;;;;;4985996;28;20197;-77
2023/04/06 09:12:28;;;;;;;6.47;2.50;;;11.20;93.00;;;;;;4987786;28;20621;-76
2023/04/06 09:14:55;;;;;;;5.37;2.27;;;11.10;93.90;;;;;;4986821;28;20213;-77
2023/04/06 09:17:29;;;;;;;5.57;2.43;;;11.40;94.50;;;;;;4989480;28;20198;-75
2023/04/06 09:19:56;;;;;;;3.63;2.37;;;10.90;94.10;;;;;;4983603;28;20371;-78
2023/04/06 09:22:24;;;;;;;7.30;2.17;;;11.10;94.20;;;;;;4994470;28;20260;-77
2023/04/06 09:24:52;;;;;;;5.30;2.07;;;11.20;92.70;;;;;;4991062;28;20253;-76
2023/04/06 09:27:29;;;;;;;3.07;2.20;;;11.40;93.00;;;;;;4991578;28;20213;-76
2023/04/06 09:30:07;;;;;;;3.30;2.20;;;11.00;93.40;;;;;;4991129;28;20220;-77
2023/04/06 09:32:44;;;;;;;3.57;1.90;;;11.40;93.50;;;;;;4992353;28;20259;-76
2023/04/06 09:35:10;;;;;;;3.93;2.57;;;11.40;93.40;;;;;;4992156;28;20205;-75
2023/04/06 09:37:36;;;;;;;3.60;2.10;;;11.90;91.90;;;;;;4989779;28;20217;-77
2023/04/06 09:40:07;;;;;;;4.20;2.00;;;11.70;92.30;;;;;;4992337;28;20209;-75
2023/04/06 09:42:34;;;;;;;4.20;1.80;;;11.80;92.80;;;;;;4989738;28;20684;-75
2023/04/06 09:45:00;;;;;;;3.70;2.23;;;11.90;93.30;;;;;;4991472;28;20205;-76
2023/04/06 09:47:27;;;;;;;3.60;2.00;;;12.30;92.70;;;;;;4985525;28;20625;-77
2023/04/06 09:50:00;;;;;;;5.27;1.90;;;12.30;92.70;;;;;;4986977;28;20218;-76
2023/04/06 09:52:36;;;;;;;2.60;2.20;;;12.10;92.50;;;;;;4989747;28;20170;-76
2023/04/06 09:55:07;;;;;;;3.07;2.20;;;12.40;92.60;;;;;;4986429;28;20533;-75
2023/04/06 09:57:47;;;;;;;3.00;2.03;;;11.90;92.70;;;;;;4983334;28;20264;-76
2023/04/06 10:00:18;;;;;;;3.20;2.20;;;11.80;93.40;;;;;;4991469;28;20245;-77
2023/04/06 10:03:08;;;;;;;3.50;2.30;;;11.50;92.90;;;;;;4992716;28;20208;-77
2023/04/06 10:05:58;;;;;;;2.80;2.13;;;11.60;93.10;;;;;;4991577;28;20237;-76
2023/04/06 10:08:27;;;;;;;4.60;1.80;;;11.50;92.90;;;;;;4989467;28;20209;-76
2023/04/06 10:10:55;;;;;;;4.07;2.27;;;11.50;93.20;;;;;;4990268;28;20297;-78
2023/04/06 10:13:21;;;;;;;3.27;2.00;;;11.80;92.70;;;;;;4990123;28;20174;-78
2023/04/06 10:15:47;;;;;;;3.77;2.30;;;12.30;92.20;;;;;;4990128;28;20208;-76
2023/04/06 10:18:13;;;;;;;3.77;1.80;;;11.90;91.40;;;;;;4978053;28;20783;-77
2023/04/06 10:20:45;;;;;;;4.67;2.67;;;11.90;91.00;;;;;;4984626;28;20201;-77
2023/04/06 10:23:20;;;;;;;3.33;2.10;;;12.00;90.90;;;;;;4991032;28;20201;-77
2023/04/06 10:25:58;;;;;;;4.80;2.37;;;12.20;90.20;;;;;;4987343;28;20204;-77
2023/04/06 10:28:25;;;;;;;4.80;3.23;;;11.80;90.50;;;;;;4990158;28;20177;-78
2023/04/06 10:30:58;;;;;;;2.77;2.00;;;12.10;90.40;;;;;;4986059;28;20222;-77
2023/04/06 10:33:24;;;;;;;5.53;2.37;;;12.20;90.10;;;;;;4991226;28;20288;-77
2023/04/06 10:35:49;;;;;;;10.17;5.27;;;12.20;90.20;;;;;;4987784;28;20601;-75
2023/04/06 10:38:19;;;;;;;10.07;2.77;;;12.20;91.30;;;;;;4992788;28;20256;-77
2023/04/06 10:40:48;;;;;;;3.73;1.93;;;12.10;90.10;;;;;;4987054;28;20209;-78
2023/04/06 10:43:22;;;;;;;3.67;2.17;;;11.70;88.40;;;;;;4991142;28;20176;-78
2023/04/06 10:46:00;;;;;;;3.33;2.13;;;11.60;88.70;;;;;;4987149;28;20182;-75
2023/04/06 10:48:40;;;;;;;4.17;2.03;;;11.60;89.00;;;;;;4986090;28;20571;-77
2023/04/06 10:51:11;;;;;;;3.03;1.93;;;12.00;90.10;;;;;;4987813;28;20213;-77
2023/04/06 10:53:37;;;;;;;3.67;2.43;;;12.50;90.00;;;;;;4990546;28;20572;-76
2023/04/06 10:56:05;;;;;;;4.23;2.10;;;12.40;88.70;;;;;;4986599;28;20214;-76
2023/04/06 10:58:30;;;;;;;3.40;2.27;;;12.00;88.10;;;;;;4987552;28;20238;-77
2023/04/06 11:00:56;;;;;;;3.43;2.43;;;12.20;89.20;;;;;;4991063;28;20565;-76
2023/04/06 11:03:22;;;;;;;2.67;2.07;;;11.40;89.60;;;;;;4986909;28;20210;-76
2023/04/06 11:05:50;;;;;;;3.73;2.20;;;11.50;89.10;;;;;;4983513;28;20217;-77
2023/04/06 11:08:32;;;;;;;5.67;2.80;;;11.60;88.70;;;;;;4985166;28;20205;-77
2023/04/06 11:11:15;;;;;;;3.13;1.67;;;11.40;88.90;;;;;;4983192;28;20214;-76
2023/04/06 11:13:46;;;;;;;4.67;2.50;;;11.10;88.40;;;;;;4989829;28;20210;-78
2023/04/06 11:16:14;;;;;;;2.90;1.87;;;11.20;87.70;;;;;;4990052;28;20186;-77
2023/04/06 11:18:57;;;;;;;4.37;2.47;;;11.20;88.80;;;;;;4989789;28;20189;-77
2023/04/06 11:21:35;;;;;;;4.93;2.60;;;11.40;89.80;;;;;;4987969;28;20637;-77
2023/04/06 11:24:07;;;;;;;3.60;2.20;;;11.60;90.20;;;;;;5008312;28;20213;-77
2023/04/06 11:26:48;;;;;;;3.53;2.60;;;11.90;90.20;;;;;;4990006;28;20205;-77
2023/04/06 11:29:16;;;;;;;5.50;2.63;;;12.10;90.30;;;;;;4988532;28;20255;-77
2023/04/06 11:31:47;;;;;;;4.27;2.40;;;12.50;90.00;;;;;;4987892;28;20221;-77
2023/04/06 11:34:16;;;;;;;4.27;2.73;;;12.20;87.60;;;;;;4986763;28;20189;-76
2023/04/06 11:36:43;;;;;;;2.80;2.10;;;12.20;87.00;;;;;;4989000;28;20166;-76
2023/04/06 11:39:10;;;;;;;5.23;2.30;;;12.20;87.70;;;;;;4986332;28;20217;-77
2023/04/06 11:41:36;;;;;;;5.87;2.40;;;12.10;87.60;;;;;;4987214;28;20202;-75
2023/04/06 11:44:05;;;;;;;3.27;2.30;;;12.10;88.70;;;;;;4989834;28;20727;-76
2023/04/06 11:46:31;;;;;;;3.37;1.73;;;11.60;87.70;;;;;;4980854;28;20643;-76
2023/04/06 11:49:01;;;;;;;3.67;2.27;;;11.40;87.30;;;;;;4981659;28;20225;-76
2023/04/06 11:51:27;;;;;;;2.60;2.00;;;11.30;88.40;;;;;;4983897;28;20209;-76
2023/04/06 11:53:53;;;;;;;5.30;3.00;;;11.60;88.90;;;;;;4979171;28;20334;-76
2023/04/06 11:56:29;;;;;;;3.00;2.17;;;11.20;89.20;;;;;;4985701;28;20643;-77
2023/04/06 11:58:56;;;;;;;2.67;2.37;;;11.60;90.10;;;;;;4989733;28;20248;-75
2023/04/06 12:01:22;;;;;;;5.37;2.67;;;11.50;89.20;;;;;;4989712;28;20194;-77
2023/04/06 12:03:48;;;;;;;5.50;2.67;;;11.40;88.90;;;;;;4987503;28;20184;-77
2023/04/06 12:06:15;;;;;;;3.03;2.30;;;11.60;89.10;;;;;;4988375;28;20211;-78
2023/04/06 12:08:41;;;;;;;4.60;2.70;;;11.60;88.50;;;;;;4988335;28;20208;-76
2023/04/06 12:11:06;;;;;;;4.93;3.00;;;11.60;87.80;;;;;;4989353;28;20245;-76
2023/04/06 12:13:32;;;;;;;5.27;2.00;;;11.60;87.70;;;;;;4987206;28;20309;-77
2023/04/06 12:15:58;;;;;;;3.43;2.57;;;11.70;87.50;;;;;;4989596;28;20180;-76
2023/04/06 12:18:23;;;;;;;4.77;2.37;;;11.90;86.20;;;;;;4984817;28;20213;-77
2023/04/06 12:20:49;;;;;;;4.70;2.63;;;11.90;86.70;;;;;;4988491;28;20214;-76
2023/04/06 12:23:15;;;;;;;3.87;2.40;;;12.10;86.30;;;;;;4984669;28;20247;-77
2023/04/06 12:25:42;;;;;;;3.37;2.80;;;12.20;85.80;;;;;;4987754;28;20665;-77
2023/04/06 12:28:07;;;;;;;5.07;2.63;;;12.40;84.30;;;;;;4989995;28;20263;-77
2023/04/06 12:30:35;;;;;;;2.83;2.10;;;12.60;85.40;;;;;;4990263;23;20273;-75
2023/04/06 12:33:01;;;;;;;4.40;2.13;;;12.70;85.00;;;;;;4945505;28;20218;-75
2023/04/06 12:35:27;;;;;;;3.03;1.80;;;12.90;84.40;;;;;;4941586;28;20213;-76
2023/04/06 12:37:53;;;;;;;3.13;2.20;;;12.60;85.40;;;;;;4937151;28;20224;-75
2023/04/06 12:40:18;;;;;;;2.73;2.40;;;11.90;84.60;;;;;;4942859;28;20220;-76
2023/04/06 12:42:45;;;;;;;3.43;2.73;;;11.80;85.10;;;;;;4941841;28;20178;-75
2023/04/06 12:45:11;;;;;;;3.40;2.37;;;11.80;85.50;;;;;;4941169;28;20313;-76
2023/04/06 12:47:37;;;;;;;4.00;2.80;;;11.90;86.10;;;;;;4943930;28;20290;-75
2023/04/06 12:50:05;;;;;;;2.43;1.87;;;12.10;85.90;;;;;;4941247;28;20383;-73